createdAt,value
2018-09-05T00:01:01.874Z,86.70
2018-09-05T00:03:29.786Z,86.70
2018-09-05T00:05:57.642Z,87.10
2018-09-05T00:08:25.228Z,87.00
2018-09-05T00:10:52.812Z,86.80
2018-09-05T00:13:20.520Z,87.30
2018-09-05T00:15:48.320Z,88.40
2018-09-05T00:18:15.946Z,89.10
2018-09-05T00:20:44.200Z,89.30
2018-09-05T00:23:11.820Z,90.00
2018-09-05T00:25:39.471Z,90.70
2018-09-05T00:28:07.258Z,90.80
2018-09-05T00:30:34.863Z,91.10
2018-09-05T00:33:02.743Z,90.90
2018-09-05T00:35:30.289Z,91.00
2018-09-05T00:37:57.919Z,91.30
2018-09-05T00:40:25.705Z,91.70
2018-09-05T00:42:53.435Z,92.00
2018-09-05T00:45:21.053Z,92.60
2018-09-05T00:47:48.918Z,93.20
2018-09-05T00:50:16.515Z,92.90
2018-09-05T00:52:44.616Z,92.80
2018-09-05T00:55:12.245Z,92.80
2018-09-05T00:57:39.900Z,93.40
2018-09-05T01:00:07.576Z,93.80
2018-09-05T01:02:35.168Z,93.90
2018-09-05T01:05:02.920Z,93.80
2018-09-05T01:07:30.419Z,94.50
2018-09-05T01:09:58.152Z,94.30
2018-09-05T01:12:25.778Z,94.60
2018-09-05T01:14:54.285Z,95.50
2018-09-05T01:17:22.126Z,95.40
2018-09-05T01:19:50.359Z,95.30
2018-09-05T01:22:17.959Z,95.10
2018-09-05T01:24:46.371Z,95.50
2018-09-05T01:27:14.038Z,95.80
2018-09-05T01:29:42.229Z,96.40
2018-09-05T01:32:10.882Z,97.00
2018-09-05T01:34:39.529Z,96.80
2018-09-05T01:37:07.576Z,96.70
2018-09-05T01:39:35.673Z,96.80
2018-09-05T01:42:03.559Z,96.40
2018-09-05T01:44:31.760Z,97.00
2018-09-05T01:47:00.173Z,97.00
2018-09-05T01:49:27.892Z,97.70
2018-09-05T01:51:56.037Z,97.90
2018-09-05T01:54:23.663Z,97.80
2018-09-05T01:56:52.550Z,98.70
2018-09-05T01:59:20.762Z,98.30
2018-09-05T02:01:48.960Z,98.40
2018-09-05T02:04:17.249Z,99.00
2018-09-05T02:06:44.957Z,98.50
2018-09-05T02:09:13.934Z,98.40
2018-09-05T02:11:41.823Z,98.90
2018-09-05T02:14:10.039Z,99.80
2018-09-05T02:16:37.597Z,99.20
2018-09-05T02:19:05.406Z,99.90
2018-09-05T02:21:34.072Z,99.90
2018-09-05T02:24:01.979Z,99.90
2018-09-05T02:26:29.465Z,99.90
2018-09-05T02:28:57.721Z,99.90
2018-09-05T02:31:25.334Z,99.90
2018-09-05T02:33:53.413Z,99.90
2018-09-05T02:36:21.693Z,99.90
2018-09-05T02:38:50.101Z,99.90
2018-09-05T02:41:17.692Z,99.90
2018-09-05T02:43:50.954Z,99.90
2018-09-05T02:46:19.207Z,99.90
2018-09-05T02:48:46.784Z,99.90
2018-09-05T02:51:14.568Z,99.90
2018-09-05T02:53:42.291Z,99.90
2018-09-05T02:56:09.952Z,99.90
2018-09-05T02:58:37.626Z,99.90
2018-09-05T03:01:05.513Z,99.90
2018-09-05T03:03:33.110Z,99.90
2018-09-05T03:06:00.760Z,99.90
2018-09-05T03:08:28.349Z,99.90
2018-09-05T03:10:56.441Z,99.90
2018-09-05T03:13:24.501Z,99.90
2018-09-05T03:15:52.093Z,99.90
2018-09-05T03:18:19.728Z,99.90
2018-09-05T03:20:47.296Z,99.90
2018-09-05T03:23:14.965Z,99.90
2018-09-05T03:25:43.070Z,99.90
2018-09-05T03:28:10.694Z,99.90
2018-09-05T03:30:39.140Z,99.90
2018-09-05T03:33:07.179Z,99.90
2018-09-05T03:35:34.821Z,99.90
2018-09-05T03:38:02.688Z,99.90
2018-09-05T03:40:30.317Z,99.90
2018-09-05T03:42:58.781Z,99.90
2018-09-05T03:45:26.440Z,99.90
2018-09-05T03:47:54.048Z,99.90
2018-09-05T03:50:21.648Z,99.90
2018-09-05T03:52:49.297Z,99.90
2018-09-05T03:55:16.956Z,99.90
2018-09-05T03:57:45.185Z,99.90
2018-09-05T04:00:13.011Z,99.90
2018-09-05T04:02:40.613Z,99.90
2018-09-05T04:05:08.483Z,99.90
2018-09-05T04:07:36.231Z,99.90
2018-09-05T04:10:03.945Z,99.90
2018-09-05T04:12:36.048Z,99.90
2018-09-05T04:15:04.529Z,99.90
2018-09-05T04:17:32.113Z,99.90
2018-09-05T04:19:59.852Z,99.90
2018-09-05T04:22:27.501Z,99.90
2018-09-05T04:24:55.210Z,99.90
2018-09-05T04:27:22.976Z,99.90
2018-09-05T04:29:50.727Z,99.90
2018-09-05T04:32:18.564Z,99.90
2018-09-05T04:34:46.968Z,99.90
2018-09-05T04:37:14.720Z,99.90
2018-09-05T04:39:42.460Z,99.90
2018-09-05T04:42:10.160Z,99.90
2018-09-05T04:44:37.788Z,99.90
2018-09-05T04:47:05.492Z,99.90
2018-09-05T04:49:33.201Z,99.90
2018-09-05T04:52:01.451Z,99.90
2018-09-05T04:54:29.183Z,99.90
2018-09-05T04:56:57.608Z,99.90
2018-09-05T04:59:25.432Z,99.90
2018-09-05T05:01:53.280Z,99.90
2018-09-05T05:04:21.070Z,99.90
2018-09-05T05:06:48.728Z,99.90
2018-09-05T05:09:16.280Z,99.90
2018-09-05T05:11:43.894Z,99.90
2018-09-05T05:14:11.864Z,99.90
2018-09-05T05:16:39.753Z,99.90
2018-09-05T05:19:07.825Z,99.90
2018-09-05T05:21:35.848Z,99.90
2018-09-05T05:24:03.454Z,99.90
2018-09-05T05:26:31.037Z,99.90
2018-09-05T05:28:58.760Z,99.90
2018-09-05T05:31:26.350Z,99.90
2018-09-05T05:33:53.933Z,99.90
2018-09-05T05:36:21.561Z,99.90
2018-09-05T05:38:49.926Z,99.90
2018-09-05T05:41:17.517Z,99.90
2018-09-05T05:43:45.203Z,99.90
2018-09-05T05:46:12.925Z,99.90
2018-09-05T05:48:40.704Z,99.90
2018-09-05T05:51:08.336Z,99.90
2018-09-05T05:53:35.994Z,99.90
2018-09-05T05:56:03.569Z,99.90
2018-09-05T05:58:31.439Z,99.90
2018-09-05T06:00:59.745Z,99.90
2018-09-05T06:03:27.570Z,99.90
2018-09-05T06:05:55.289Z,99.90
2018-09-05T06:08:22.845Z,99.90
2018-09-05T06:10:50.626Z,99.90
2018-09-05T06:13:18.253Z,99.90
2018-09-05T06:15:45.903Z,98.60
2018-09-05T06:18:14.011Z,97.70
2018-09-05T06:20:41.716Z,97.40
2018-09-05T06:23:09.332Z,97.70
2018-09-05T06:25:37.352Z,97.00
2018-09-05T06:28:05.139Z,97.00
2018-09-05T06:30:32.890Z,96.70
2018-09-05T06:33:00.772Z,96.70
2018-09-05T06:35:28.682Z,96.70
2018-09-05T06:37:56.453Z,95.10
2018-09-05T06:40:24.081Z,94.40
2018-09-05T06:42:51.886Z,93.10
2018-09-05T06:45:19.624Z,93.00
2018-09-05T06:47:47.873Z,93.00
2018-09-05T06:50:16.081Z,93.10
2018-09-05T06:52:43.802Z,93.00
2018-09-05T06:55:11.665Z,93.10
2018-09-05T06:57:39.364Z,92.90
2018-09-05T07:00:07.885Z,92.70
2018-09-05T07:02:35.840Z,92.30
2018-09-05T07:05:03.610Z,91.70
2018-09-05T07:07:32.075Z,90.50
2018-09-05T07:10:00.603Z,90.60
2018-09-05T07:12:28.286Z,89.60
2018-09-05T07:14:55.893Z,88.30
2018-09-05T07:17:23.712Z,87.80
2018-09-05T07:19:51.742Z,87.80
2018-09-05T07:22:20.164Z,87.80
2018-09-05T07:24:48.754Z,88.00
2018-09-05T07:27:17.485Z,87.60
2018-09-05T07:29:45.421Z,86.90
2018-09-05T07:32:13.493Z,86.70
2018-09-05T07:34:41.220Z,86.20
2018-09-05T07:37:08.878Z,85.90
2018-09-05T07:39:36.554Z,86.40
2018-09-05T07:42:04.210Z,83.50
2018-09-05T07:44:32.023Z,80.80
2018-09-05T07:47:00.051Z,81.30
2018-09-05T07:49:29.044Z,83.30
2018-09-05T07:52:03.896Z,83.40
2018-09-05T07:54:34.958Z,84.00
2018-09-05T07:57:02.872Z,82.00
2018-09-05T07:59:31.355Z,81.70
2018-09-05T08:01:59.373Z,82.50
2018-09-05T08:04:27.702Z,82.80
2018-09-05T08:06:55.988Z,82.30
2018-09-05T08:09:23.639Z,79.40
2018-09-05T08:11:51.320Z,79.60
2018-09-05T08:14:19.040Z,79.00
2018-09-05T08:16:47.340Z,77.60
2018-09-05T08:19:14.997Z,78.90
2018-09-05T08:21:42.767Z,77.20
2018-09-05T08:24:10.767Z,76.00
2018-09-05T08:26:38.564Z,74.00
2018-09-05T08:29:06.342Z,75.10
2018-09-05T08:31:34.281Z,73.80
2018-09-05T08:34:06.781Z,73.90
2018-09-05T08:36:34.733Z,74.80
2018-09-05T08:39:02.294Z,74.00
2018-09-05T08:41:30.641Z,72.10
2018-09-05T08:43:58.470Z,71.80
2018-09-05T08:46:26.523Z,71.20
2018-09-05T08:51:31.457Z,69.10
2018-09-05T08:53:59.835Z,68.30
2018-09-05T08:56:27.511Z,66.90
2018-09-05T08:58:55.238Z,66.00
2018-09-05T09:01:22.969Z,64.60
2018-09-05T09:03:50.749Z,65.80
2018-09-05T09:06:18.492Z,64.10
2018-09-05T09:08:46.829Z,63.90
2018-09-05T09:11:14.423Z,61.90
2018-09-05T09:13:43.523Z,63.90
2018-09-05T09:16:11.225Z,65.40
2018-09-05T09:18:38.947Z,65.50
2018-09-05T09:21:06.632Z,64.50
2018-09-05T09:23:34.254Z,63.80
2018-09-05T09:26:02.032Z,63.50
2018-09-05T09:28:29.764Z,61.40
2018-09-05T09:30:57.383Z,61.10
2018-09-05T09:33:25.950Z,60.20
2018-09-05T09:35:53.817Z,60.80
2018-09-05T09:38:21.456Z,60.60
2018-09-05T09:40:49.189Z,60.00
2018-09-05T09:43:17.821Z,59.40
2018-09-05T09:45:46.349Z,60.70
2018-09-05T09:48:15.686Z,60.40
2018-09-05T09:50:44.262Z,59.50
2018-09-05T09:53:12.408Z,58.70
2018-09-05T09:55:41.493Z,57.90
2018-09-05T09:58:09.233Z,56.00
2018-09-05T10:00:42.522Z,55.30
2018-09-05T10:03:15.856Z,55.20
2018-09-05T10:05:49.318Z,55.10
2018-09-05T10:08:22.536Z,56.40
2018-09-05T10:10:56.053Z,55.40
2018-09-05T10:13:29.396Z,57.80
2018-09-05T10:16:02.851Z,57.00
2018-09-05T10:18:32.372Z,55.20
2018-09-05T10:21:00.461Z,55.40
2018-09-05T10:23:28.329Z,54.20
2018-09-05T10:25:55.980Z,52.50
2018-09-05T10:28:23.773Z,54.60
2018-09-05T10:30:51.488Z,55.00
2018-09-05T10:33:19.268Z,55.00
2018-09-05T10:35:47.543Z,53.40
2018-09-05T10:38:15.361Z,54.30
2018-09-05T10:40:43.670Z,55.10
2018-09-05T10:43:11.428Z,56.20
2018-09-05T10:45:39.170Z,56.60
2018-09-05T10:48:06.963Z,56.20
2018-09-05T10:50:35.544Z,56.90
2018-09-05T10:53:03.303Z,57.00
2018-09-05T10:55:32.050Z,56.20
2018-09-05T10:57:59.703Z,56.80
2018-09-05T11:00:27.625Z,56.40
2018-09-05T11:02:55.912Z,55.20
2018-09-05T11:05:23.693Z,53.00
2018-09-05T11:07:51.688Z,52.30
2018-09-05T11:10:19.301Z,53.60
2018-09-05T11:12:48.407Z,52.70
2018-09-05T11:15:16.113Z,52.80
2018-09-05T11:17:44.416Z,52.20
2018-09-05T11:20:13.035Z,52.60
2018-09-05T11:22:41.064Z,51.50
2018-09-05T11:25:08.892Z,48.70
2018-09-05T11:27:37.185Z,48.90
2018-09-05T11:30:05.131Z,49.00
2018-09-05T11:32:32.816Z,48.60
2018-09-05T11:35:00.760Z,46.50
2018-09-05T11:37:28.553Z,47.50
2018-09-05T11:39:56.625Z,46.50
2018-09-05T11:42:24.509Z,47.10
2018-09-05T11:44:53.152Z,46.60
2018-09-05T11:47:20.805Z,47.10
2018-09-05T11:49:49.076Z,47.80
2018-09-05T11:52:17.486Z,45.90
2018-09-05T11:54:45.226Z,45.80
2018-09-05T11:57:13.052Z,45.90
2018-09-05T11:59:41.328Z,46.60
2018-09-05T12:02:09.606Z,46.90
2018-09-05T12:04:37.316Z,47.10
2018-09-05T12:07:05.187Z,45.90
2018-09-05T12:09:32.897Z,44.80
2018-09-05T12:12:01.034Z,44.80
2018-09-05T12:14:28.627Z,45.20
2018-09-05T12:16:56.483Z,46.10
2018-09-05T12:19:24.049Z,46.50
2018-09-05T12:21:52.828Z,45.40
2018-09-05T12:24:20.414Z,44.30
2018-09-05T12:26:48.099Z,43.60
2018-09-05T12:29:15.870Z,42.60
2018-09-05T12:31:44.887Z,41.40
2018-09-05T12:34:13.345Z,42.70
2018-09-05T12:36:42.420Z,42.50
2018-09-05T12:39:12.253Z,42.40
2018-09-05T12:41:40.646Z,42.60
2018-09-05T12:44:08.469Z,41.10
2018-09-05T12:46:36.487Z,38.70
2018-09-05T12:49:04.244Z,37.90
2018-09-05T12:51:31.930Z,37.90
2018-09-05T12:54:01.156Z,38.90
2018-09-05T12:56:30.329Z,37.80
2018-09-05T12:58:58.417Z,37.90
2018-09-05T13:01:26.223Z,36.90
2018-09-05T13:03:54.657Z,36.30
2018-09-05T13:06:22.800Z,35.90
2018-09-05T13:08:50.887Z,35.30
2018-09-05T13:11:19.747Z,34.90
2018-09-05T13:13:47.707Z,35.50
2018-09-05T13:16:15.415Z,35.80
2018-09-05T13:18:43.112Z,35.10
2018-09-05T13:21:10.845Z,34.00
2018-09-05T13:23:39.894Z,33.10
2018-09-05T13:26:07.869Z,33.80
2018-09-05T13:28:36.458Z,34.70
2018-09-05T13:31:04.230Z,34.60
2018-09-05T13:33:31.869Z,34.60
2018-09-05T13:36:00.022Z,34.50
2018-09-05T13:38:28.080Z,34.80
2018-09-05T13:40:55.736Z,34.20
2018-09-05T13:43:23.504Z,35.90
2018-09-05T13:45:51.100Z,36.00
2018-09-05T13:48:18.904Z,36.90
2018-09-05T13:50:46.693Z,36.30
2018-09-05T13:53:15.522Z,38.90
2018-09-05T13:55:43.992Z,38.20
2018-09-05T13:58:12.009Z,39.00
2018-09-05T14:00:40.315Z,38.60
2018-09-05T14:03:08.521Z,37.00
2018-09-05T14:05:37.009Z,36.40
2018-09-05T14:08:06.316Z,36.10
2018-09-05T14:10:35.310Z,35.80
2018-09-05T14:13:03.229Z,35.70
2018-09-05T14:15:31.001Z,35.20
2018-09-05T14:17:58.929Z,33.80
2018-09-05T14:20:27.328Z,33.40
2018-09-05T14:22:55.184Z,33.50
2018-09-05T14:25:22.913Z,33.70
2018-09-05T14:27:51.056Z,35.30
2018-09-05T14:30:18.952Z,36.20
2018-09-05T14:32:46.709Z,36.00
2018-09-05T14:35:14.452Z,35.80
2018-09-05T14:37:42.216Z,35.70
2018-09-05T14:40:09.903Z,36.60
2018-09-05T14:42:37.840Z,36.70
2018-09-05T14:45:05.679Z,36.40
2018-09-05T14:47:33.479Z,36.90
2018-09-05T14:50:01.181Z,36.70
2018-09-05T14:52:29.240Z,36.80
2018-09-05T14:54:56.823Z,36.00
2018-09-05T14:57:25.333Z,34.70
2018-09-05T14:59:53.736Z,33.20
2018-09-05T15:02:21.456Z,33.30
2018-09-05T15:04:49.223Z,32.90
2018-09-05T15:07:17.488Z,31.90
2018-09-05T15:09:45.191Z,32.00
2018-09-05T15:12:12.826Z,32.20
2018-09-05T15:14:40.460Z,32.90
2018-09-05T15:17:08.095Z,34.40
2018-09-05T15:19:36.330Z,33.70
2018-09-05T15:22:04.228Z,33.90
2018-09-05T15:24:32.010Z,33.10
2018-09-05T15:27:00.365Z,34.10
2018-09-05T15:29:29.865Z,32.80
2018-09-05T15:31:59.113Z,32.40
2018-09-05T15:34:27.628Z,32.60
2018-09-05T15:36:56.052Z,32.90
2018-09-05T15:39:24.008Z,32.50
2018-09-05T15:41:51.960Z,33.60
2018-09-05T15:44:19.852Z,33.10
2018-09-05T15:46:47.747Z,33.00
2018-09-05T15:49:15.597Z,32.70
2018-09-05T15:51:43.220Z,32.40
2018-09-05T15:54:15.114Z,32.60
2018-09-05T15:56:42.982Z,33.20
2018-09-05T15:59:11.625Z,33.00
2018-09-05T16:01:39.417Z,32.50
2018-09-05T16:04:07.192Z,32.50
2018-09-05T16:06:34.976Z,31.80
2018-09-05T16:09:03.135Z,33.00
2018-09-05T16:11:31.305Z,32.80
2018-09-05T16:13:59.577Z,32.60
2018-09-05T16:16:27.379Z,31.50
2018-09-05T16:18:55.453Z,33.60
2018-09-05T16:21:23.284Z,33.40
2018-09-05T16:23:51.783Z,33.20
2018-09-05T16:26:19.483Z,33.80
2018-09-05T16:28:47.484Z,33.50
2018-09-05T16:31:15.344Z,32.90
2018-09-05T16:33:43.527Z,32.80
2018-09-05T16:36:11.583Z,33.50
2018-09-05T16:38:39.171Z,33.20
2018-09-05T16:41:07.085Z,33.30
2018-09-05T16:43:34.836Z,33.10
2018-09-05T16:46:02.898Z,33.50
2018-09-05T16:48:31.231Z,33.10
2018-09-05T16:50:59.647Z,33.60
2018-09-05T16:53:27.957Z,33.80
2018-09-05T16:55:55.707Z,34.60
2018-09-05T16:58:23.482Z,33.80
2018-09-05T17:00:51.225Z,33.60
2018-09-05T17:03:19.098Z,34.10
2018-09-05T17:05:46.815Z,35.20
2018-09-05T17:08:14.570Z,35.10
2018-09-05T17:10:42.465Z,34.90
2018-09-05T17:13:10.219Z,35.70
2018-09-05T17:15:38.426Z,34.80
2018-09-05T17:18:07.810Z,34.80
2018-09-05T17:20:35.703Z,34.80
2018-09-05T17:23:03.405Z,34.70
2018-09-05T17:25:31.098Z,35.20
2018-09-05T17:27:58.700Z,35.20
2018-09-05T17:30:26.877Z,37.20
2018-09-05T17:32:54.868Z,37.10
2018-09-05T17:35:23.191Z,37.50
2018-09-05T17:37:51.108Z,38.70
2018-09-05T17:40:18.822Z,40.80
2018-09-05T17:42:46.841Z,41.00
2018-09-05T17:45:14.781Z,41.40
2018-09-05T17:47:42.723Z,42.90
2018-09-05T17:50:10.468Z,43.50
2018-09-05T17:52:38.168Z,43.70
2018-09-05T17:55:06.317Z,44.20
2018-09-05T17:57:33.974Z,44.90
2018-09-05T18:00:01.824Z,45.20
2018-09-05T18:02:29.614Z,46.20
2018-09-05T18:04:57.290Z,46.10
2018-09-05T18:07:25.525Z,44.50
2018-09-05T18:09:53.381Z,47.10
2018-09-05T18:12:21.589Z,48.10
2018-09-05T18:14:49.440Z,48.30
2018-09-05T18:17:17.056Z,48.40
2018-09-05T18:19:44.963Z,49.10
2018-09-05T18:22:13.228Z,49.80
2018-09-05T18:24:41.466Z,49.60
2018-09-05T18:27:09.384Z,49.30
2018-09-05T18:29:37.334Z,50.20
2018-09-05T18:32:05.221Z,49.50
2018-09-05T18:34:33.482Z,50.20
2018-09-05T18:37:01.273Z,49.80
2018-09-05T18:39:29.044Z,50.60
2018-09-05T18:41:57.084Z,49.80
2018-09-05T18:44:24.862Z,50.20
2018-09-05T18:46:52.650Z,50.30
2018-09-05T18:49:21.083Z,50.30
2018-09-05T18:51:48.724Z,50.20
2018-09-05T18:54:16.510Z,51.40
2018-09-05T18:56:44.254Z,50.60
2018-09-05T18:59:12.731Z,51.50
2018-09-05T19:01:45.668Z,51.40
2018-09-05T19:04:13.916Z,51.30
2018-09-05T19:06:41.689Z,51.30
2018-09-05T19:09:11.141Z,51.20
2018-09-05T19:11:39.258Z,50.90
2018-09-05T19:14:07.950Z,50.20
2018-09-05T19:16:35.618Z,50.60
2018-09-05T19:19:04.114Z,50.70
2018-09-05T19:21:32.184Z,50.80
2018-09-05T19:24:00.233Z,50.40
2018-09-05T19:26:28.106Z,50.20
2018-09-05T19:28:56.387Z,49.80
2018-09-05T19:31:24.451Z,50.30
2018-09-05T19:33:52.347Z,49.60
2018-09-05T19:36:20.252Z,50.10
2018-09-05T19:38:49.838Z,50.10
2018-09-05T19:41:22.189Z,50.20
2018-09-05T19:43:50.085Z,50.70
2018-09-05T19:46:18.217Z,50.10
2018-09-05T19:48:46.119Z,48.60
2018-09-05T19:51:14.235Z,49.40
2018-09-05T19:53:42.248Z,48.40
2018-09-05T19:56:10.354Z,48.70
2018-09-05T19:58:38.267Z,48.70
2018-09-05T20:01:06.389Z,49.10
2018-09-05T20:03:36.419Z,49.10
2018-09-05T20:06:04.239Z,48.60
2018-09-05T20:08:32.008Z,48.70
2018-09-05T20:10:59.711Z,49.10
2018-09-05T20:13:27.404Z,49.80
2018-09-05T20:15:55.463Z,48.50
2018-09-05T20:18:23.605Z,49.60
2018-09-05T20:20:51.275Z,48.70
2018-09-05T20:23:19.042Z,49.40
2018-09-05T20:25:46.929Z,49.30
2018-09-05T20:28:14.658Z,48.30
2018-09-05T20:30:42.540Z,48.20
2018-09-05T20:33:10.551Z,48.40
2018-09-05T20:35:38.448Z,48.30
2018-09-05T20:38:06.552Z,47.90
2018-09-05T20:40:34.353Z,44.70
2018-09-05T20:43:01.980Z,48.00
2018-09-05T20:45:29.674Z,48.20
2018-09-05T20:47:57.394Z,48.70
2018-09-05T20:50:25.198Z,48.60
2018-09-05T20:52:52.918Z,48.60
2018-09-05T20:55:20.663Z,48.00
2018-09-05T20:57:48.328Z,48.80
2018-09-05T21:00:16.011Z,48.40
2018-09-05T21:02:43.763Z,47.00
2018-09-05T21:05:12.740Z,48.40
2018-09-05T21:07:40.574Z,46.50
2018-09-05T21:10:08.195Z,44.70
2018-09-05T21:12:36.027Z,44.30
2018-09-05T21:15:04.531Z,43.10
2018-09-05T21:17:32.236Z,42.80
2018-09-05T21:20:00.568Z,42.90
2018-09-05T21:22:28.712Z,42.70
2018-09-05T21:24:57.001Z,42.60
2018-09-05T21:27:25.900Z,42.30
2018-09-05T21:29:54.599Z,41.70
2018-09-05T21:32:22.391Z,41.50
2018-09-05T21:34:51.424Z,41.70
2018-09-05T21:37:20.015Z,41.80
2018-09-05T21:39:47.993Z,42.30
2018-09-05T21:42:16.247Z,42.40
2018-09-05T21:44:44.265Z,42.60
2018-09-05T21:47:12.056Z,42.80
2018-09-05T21:49:39.881Z,43.00
2018-09-05T21:52:07.719Z,43.50
2018-09-05T21:54:35.480Z,43.50
2018-09-05T21:57:04.392Z,43.40
2018-09-05T21:59:32.118Z,43.70
2018-09-05T22:01:59.982Z,44.10
2018-09-05T22:04:27.827Z,44.50
2018-09-05T22:06:55.827Z,45.00
2018-09-05T22:09:23.594Z,45.10
2018-09-05T22:11:52.438Z,45.10
2018-09-05T22:14:20.895Z,45.20
2018-09-05T22:16:48.544Z,46.00
2018-09-05T22:19:16.588Z,45.50
2018-09-05T22:21:44.421Z,46.00
2018-09-05T22:24:12.745Z,45.90
2018-09-05T22:26:40.488Z,46.20
2018-09-05T22:29:08.220Z,46.80
2018-09-05T22:31:35.940Z,47.30
2018-09-05T22:34:03.644Z,47.50
2018-09-05T22:36:32.691Z,48.20
2018-09-05T22:39:00.554Z,48.60
2018-09-05T22:41:28.529Z,48.40
2018-09-05T22:45:08.360Z,48.90
2018-09-05T22:50:52.531Z,49.80
2018-09-05T22:53:37.547Z,49.30
2018-09-05T23:00:29.758Z,50.40
2018-09-05T23:05:10.880Z,51.30
2018-09-05T23:07:50.417Z,51.00
2018-09-05T23:10:30.087Z,52.40
2018-09-05T23:13:09.402Z,52.40
2018-09-05T23:15:48.446Z,52.40
2018-09-05T23:18:35.374Z,52.40
2018-09-05T23:21:19.114Z,52.30
2018-09-05T23:23:54.276Z,52.20
2018-09-05T23:26:22.380Z,52.10
2018-09-05T23:28:50.647Z,52.10
2018-09-05T23:31:18.877Z,52.90
2018-09-05T23:33:47.897Z,52.90
2018-09-05T23:36:16.909Z,52.90
2018-09-05T23:38:45.490Z,53.20
2018-09-05T23:41:14.328Z,54.00
2018-09-05T23:43:42.379Z,54.30
2018-09-05T23:46:11.099Z,54.60
2018-09-05T23:48:38.947Z,54.80
2018-09-05T23:51:07.218Z,54.80
2018-09-05T23:53:35.189Z,55.00
2018-09-05T23:56:03.454Z,55.40
2018-09-05T23:58:31.438Z,55.70
